createdAt,value
2018-11-05T00:00:38.135Z,25.00
2018-11-05T00:04:02.948Z,27.37
2018-11-05T00:07:27.775Z,25.33
2018-11-05T00:10:52.611Z,26.47
2018-11-05T00:14:17.410Z,27.00
2018-11-05T00:17:42.209Z,25.17
2018-11-05T00:21:07.157Z,27.00
2018-11-05T00:24:32.099Z,25.87
2018-11-05T00:27:56.979Z,27.03
2018-11-05T00:31:21.831Z,23.80
2018-11-05T00:34:46.684Z,31.00
2018-11-05T00:38:11.549Z,27.37
2018-11-05T00:41:36.572Z,28.23
2018-11-05T00:45:01.386Z,27.53
2018-11-05T00:48:26.204Z,28.13
2018-11-05T00:51:51.055Z,32.23
2018-11-05T00:55:15.946Z,29.53
2018-11-05T00:58:40.841Z,28.70
2018-11-05T01:02:05.914Z,31.07
2018-11-05T01:05:30.717Z,27.63
2018-11-05T01:08:55.563Z,28.63
2018-11-05T01:12:20.524Z,26.47
2018-11-05T01:15:45.285Z,24.70
2018-11-05T01:19:11.090Z,24.13
2018-11-05T01:22:35.957Z,27.60
2018-11-05T01:26:00.791Z,24.17
2018-11-05T01:29:25.698Z,26.13
2018-11-05T01:32:50.489Z,25.67
2018-11-05T01:36:15.221Z,26.03
2018-11-05T01:39:40.011Z,25.87
2018-11-05T01:43:04.881Z,29.03
2018-11-05T01:46:29.641Z,27.93
2018-11-05T01:49:54.499Z,24.20
2018-11-05T01:53:19.392Z,22.70
2018-11-05T01:56:44.384Z,24.90
2018-11-05T02:00:13.198Z,26.07
2018-11-05T02:03:38.048Z,29.67
2018-11-05T02:07:02.932Z,26.87
2018-11-05T02:10:27.879Z,25.63
2018-11-05T02:13:52.530Z,25.90
2018-11-05T02:17:17.311Z,24.30
2018-11-05T02:20:42.148Z,26.63
2018-11-05T02:24:07.044Z,23.80
2018-11-05T02:27:32.047Z,24.43
2018-11-05T02:30:56.819Z,24.47
2018-11-05T02:34:21.737Z,25.23
2018-11-05T02:37:47.161Z,23.50
2018-11-05T02:41:12.038Z,27.80
2018-11-05T02:44:36.858Z,21.67
2018-11-05T02:48:01.778Z,22.73
2018-11-05T02:51:26.602Z,25.87
2018-11-05T02:54:51.391Z,23.80
2018-11-05T02:58:17.269Z,28.27
2018-11-05T03:01:42.047Z,28.20
2018-11-05T03:05:09.668Z,26.47
2018-11-05T03:08:34.512Z,22.37
2018-11-05T03:11:59.297Z,25.87
2018-11-05T03:15:24.085Z,23.67
2018-11-05T03:18:48.900Z,21.60
2018-11-05T03:22:13.708Z,27.37
2018-11-05T03:25:38.521Z,27.47
2018-11-05T03:29:03.351Z,25.00
2018-11-05T03:32:28.149Z,22.83
2018-11-05T03:35:53.102Z,25.27
2018-11-05T03:39:17.839Z,28.03
2018-11-05T03:42:43.233Z,22.40
2018-11-05T03:46:08.046Z,24.70
2018-11-05T03:49:32.917Z,26.13
2018-11-05T03:52:57.764Z,26.30
2018-11-05T03:56:22.691Z,26.73
2018-11-05T03:59:47.428Z,32.43
2018-11-05T04:03:12.220Z,26.43
2018-11-05T04:06:36.994Z,26.03
2018-11-05T04:10:01.873Z,24.13
2018-11-05T04:13:26.707Z,30.10
2018-11-05T04:16:51.506Z,26.80
2018-11-05T04:20:16.325Z,25.73
2018-11-05T04:23:41.263Z,27.33
2018-11-05T04:27:06.647Z,26.40
2018-11-05T04:30:31.503Z,26.13
2018-11-05T04:33:56.281Z,25.43
2018-11-05T04:37:21.078Z,27.80
2018-11-05T04:40:45.869Z,25.10
2018-11-05T04:44:10.904Z,28.70
2018-11-05T04:47:35.650Z,30.87
2018-11-05T04:51:00.527Z,26.67
2018-11-05T04:54:25.295Z,26.37
2018-11-05T04:57:50.037Z,25.20
2018-11-05T05:01:14.851Z,26.73
2018-11-05T05:04:39.826Z,23.60
2018-11-05T05:08:04.614Z,23.90
2018-11-05T05:11:29.449Z,23.77
2018-11-05T05:14:54.294Z,24.40
2018-11-05T05:18:19.076Z,26.17
2018-11-05T05:21:43.817Z,25.03
2018-11-05T05:25:08.683Z,25.60
2018-11-05T05:28:33.545Z,22.33
2018-11-05T05:31:58.307Z,26.03
2018-11-05T05:35:23.094Z,24.30
2018-11-05T05:38:47.868Z,25.50
2018-11-05T05:42:12.628Z,28.67
2018-11-05T05:45:37.380Z,24.93
2018-11-05T05:49:02.135Z,24.53
2018-11-05T05:52:26.868Z,25.10
2018-11-05T05:55:51.633Z,26.33
2018-11-05T05:59:16.355Z,22.67
2018-11-05T06:02:41.578Z,26.97
2018-11-05T06:06:07.330Z,26.93
2018-11-05T06:09:31.990Z,26.40
2018-11-05T06:12:56.658Z,26.83
2018-11-05T06:16:21.379Z,29.37
2018-11-05T06:19:46.209Z,24.17
2018-11-05T06:23:10.942Z,25.70
2018-11-05T06:26:35.735Z,25.37
2018-11-05T06:30:00.451Z,30.17
2018-11-05T06:33:25.193Z,28.93
2018-11-05T06:36:49.961Z,32.23
2018-11-05T06:40:17.595Z,33.87
2018-11-05T06:43:42.378Z,28.90
2018-11-05T06:47:07.194Z,32.10
2018-11-05T06:50:31.942Z,26.50
2018-11-05T06:53:56.736Z,30.63
2018-11-05T06:57:21.454Z,31.30
2018-11-05T07:00:46.209Z,34.70
2018-11-05T07:04:10.950Z,30.63
2018-11-05T07:07:35.809Z,35.23
2018-11-05T07:11:00.539Z,33.73
2018-11-05T07:14:25.302Z,41.73
2018-11-05T07:17:50.609Z,33.77
2018-11-05T07:21:15.296Z,35.97
2018-11-05T07:24:40.069Z,32.53
2018-11-05T07:28:04.828Z,32.77
2018-11-05T07:31:29.524Z,34.63
2018-11-05T07:34:54.247Z,37.90
2018-11-05T07:38:18.969Z,38.00
2018-11-05T07:41:43.662Z,28.97
2018-11-05T07:45:11.364Z,28.63
2018-11-05T07:48:36.067Z,33.20
2018-11-05T07:52:00.819Z,27.07
2018-11-05T07:55:25.564Z,30.63
2018-11-05T07:58:50.302Z,28.53
2018-11-05T08:02:15.033Z,27.97
2018-11-05T08:05:39.737Z,26.40
2018-11-05T08:09:06.304Z,32.23
2018-11-05T08:12:30.972Z,29.33
2018-11-05T08:15:55.754Z,30.90
2018-11-05T08:19:20.536Z,30.83
2018-11-05T08:22:45.269Z,28.67
2018-11-05T08:26:10.015Z,30.90
2018-11-05T08:29:34.719Z,25.70
2018-11-05T08:32:59.463Z,24.77
2018-11-05T08:36:24.165Z,27.37
2018-11-05T08:39:48.886Z,32.03
2018-11-05T08:43:13.562Z,22.97
2018-11-05T08:46:38.259Z,26.37
2018-11-05T08:50:03.091Z,25.50
2018-11-05T08:53:27.745Z,24.00
2018-11-05T08:56:52.472Z,23.27
2018-11-05T09:00:23.807Z,24.00
2018-11-05T09:03:50.270Z,23.97
2018-11-05T09:07:14.998Z,23.67
2018-11-05T09:10:39.903Z,27.13
2018-11-05T09:14:04.603Z,22.82
2018-11-05T09:17:29.353Z,25.97
2018-11-05T09:20:54.165Z,25.72
2018-11-05T09:24:18.864Z,21.37
2018-11-05T09:27:43.641Z,22.13
2018-11-05T09:31:08.373Z,22.48
2018-11-05T09:34:33.073Z,26.33
2018-11-05T09:37:57.887Z,21.82
2018-11-05T09:41:22.629Z,20.17
2018-11-05T09:44:47.541Z,23.02
2018-11-05T09:48:12.226Z,20.75
2018-11-05T09:51:37.386Z,27.32
2018-11-05T09:55:02.205Z,25.00
2018-11-05T09:58:26.940Z,26.27
2018-11-05T10:01:51.750Z,22.67
2018-11-05T10:05:24.168Z,22.40
2018-11-05T10:08:50.257Z,24.52
2018-11-05T10:12:15.594Z,18.57
2018-11-05T10:15:40.365Z,19.30
2018-11-05T10:19:05.104Z,20.40
2018-11-05T10:22:29.775Z,19.90
2018-11-05T10:25:54.468Z,22.52
2018-11-05T10:29:19.286Z,22.85
2018-11-05T10:32:44.401Z,23.42
2018-11-05T10:36:09.178Z,24.07
2018-11-05T10:39:33.883Z,22.87
2018-11-05T10:42:58.745Z,23.65
2018-11-05T10:46:23.567Z,20.75
2018-11-05T10:49:48.313Z,24.35
2018-11-05T10:53:13.048Z,25.57
2018-11-05T10:56:37.812Z,22.42
2018-11-05T11:00:02.525Z,20.62
2018-11-05T11:03:34.186Z,20.72
2018-11-05T11:06:59.024Z,23.18
2018-11-05T11:10:24.209Z,25.40
2018-11-05T11:13:48.868Z,24.32
2018-11-05T11:17:13.657Z,21.70
2018-11-05T11:20:38.918Z,21.60
2018-11-05T11:24:09.915Z,20.25
2018-11-05T11:27:34.698Z,20.12
2018-11-05T11:30:59.381Z,23.45
2018-11-05T11:34:24.821Z,23.57
2018-11-05T11:37:49.521Z,23.45
2018-11-05T11:41:14.246Z,20.57
2018-11-05T11:44:39.013Z,21.93
2018-11-05T11:48:03.655Z,21.35
2018-11-05T11:51:28.389Z,18.65
2018-11-05T11:54:53.177Z,20.65
2018-11-05T11:58:17.907Z,20.27
2018-11-05T12:01:47.773Z,17.15
2018-11-05T12:05:31.999Z,21.10
2018-11-05T12:08:56.690Z,19.70
2018-11-05T12:12:21.400Z,20.52
2018-11-05T12:15:46.124Z,21.55
2018-11-05T12:19:10.940Z,20.65
2018-11-05T12:22:35.660Z,18.77
2018-11-05T12:26:00.403Z,18.73
2018-11-05T12:29:25.185Z,17.20
2018-11-05T12:32:50.754Z,18.70
2018-11-05T12:36:15.498Z,24.00
2018-11-05T12:39:40.238Z,20.77
2018-11-05T12:43:05.001Z,20.02
2018-11-05T12:46:29.742Z,21.17
2018-11-05T12:49:54.432Z,20.68
2018-11-05T12:53:19.093Z,17.92
2018-11-05T12:56:43.885Z,18.50
2018-11-05T13:00:15.470Z,19.25
2018-11-05T13:03:40.199Z,20.48
2018-11-05T13:07:04.946Z,19.27
2018-11-05T13:10:29.669Z,19.45
2018-11-05T13:13:54.433Z,21.80
2018-11-05T13:17:19.169Z,21.57
2018-11-05T13:20:43.934Z,16.27
2018-11-05T13:24:08.714Z,20.65
2018-11-05T13:27:33.521Z,19.15
2018-11-05T13:30:58.392Z,19.90
2018-11-05T13:34:23.130Z,16.05
2018-11-05T13:37:48.388Z,21.42
2018-11-05T13:41:12.568Z,19.55
2018-11-05T13:44:37.519Z,18.23
2018-11-05T13:48:02.508Z,17.00
2018-11-05T13:51:26.979Z,17.50
2018-11-05T13:54:52.847Z,22.00
2018-11-05T13:58:23.314Z,25.80
2018-11-05T14:01:49.895Z,19.82
2018-11-05T14:05:14.771Z,25.90
2018-11-05T14:08:39.485Z,27.77
2018-11-05T14:12:04.188Z,22.25
2018-11-05T14:15:28.952Z,15.58
2018-11-05T14:18:53.958Z,16.27
2018-11-05T14:22:18.765Z,18.23
2018-11-05T14:25:43.596Z,18.75
2018-11-05T14:29:08.903Z,19.65
2018-11-05T14:32:33.376Z,15.03
2018-11-05T14:35:58.181Z,16.82
2018-11-05T14:39:22.897Z,17.75
2018-11-05T14:42:47.704Z,16.82
2018-11-05T14:46:12.521Z,21.45
2018-11-05T14:49:37.275Z,22.95
2018-11-05T14:53:02.004Z,20.50
2018-11-05T14:56:26.778Z,22.62
2018-11-05T14:59:51.576Z,18.27
2018-11-05T15:03:16.341Z,20.70
2018-11-05T15:06:41.013Z,20.30
2018-11-05T15:10:06.046Z,26.15
2018-11-05T15:13:30.800Z,18.92
2018-11-05T15:16:55.567Z,20.95
2018-11-05T15:20:21.902Z,20.12
2018-11-05T15:23:47.573Z,24.98
2018-11-05T15:27:12.609Z,21.10
2018-11-05T15:30:37.389Z,23.40
2018-11-05T15:34:02.117Z,24.27
2018-11-05T15:37:26.865Z,19.77
2018-11-05T15:40:51.543Z,18.75
2018-11-05T15:44:16.240Z,23.80
2018-11-05T15:47:41.489Z,24.37
2018-11-05T15:51:06.426Z,20.45
2018-11-05T15:54:31.387Z,23.87
2018-11-05T15:57:55.965Z,20.35
2018-11-05T16:01:20.641Z,25.12
2018-11-05T16:04:45.391Z,23.87
2018-11-05T16:08:10.098Z,24.35
2018-11-05T16:11:34.834Z,24.25
2018-11-05T16:14:59.725Z,25.68
2018-11-05T16:18:24.335Z,22.35
2018-11-05T16:21:49.064Z,23.73
2018-11-05T16:25:13.855Z,25.20
2018-11-05T16:28:38.574Z,24.20
2018-11-05T16:32:03.362Z,29.27
2018-11-05T16:35:28.166Z,21.70
2018-11-05T16:38:52.879Z,22.50
2018-11-05T16:42:17.591Z,25.13
2018-11-05T16:45:42.363Z,25.32
2018-11-05T16:49:07.325Z,33.53
2018-11-05T16:52:32.044Z,30.33
2018-11-05T16:55:56.765Z,28.70
2018-11-05T16:59:21.476Z,32.60
2018-11-05T17:02:47.056Z,55.90
2018-11-05T17:06:11.571Z,104.20
2018-11-05T17:09:36.319Z,62.10
2018-11-05T17:13:01.011Z,77.00
2018-11-05T17:16:25.753Z,36.97
2018-11-05T17:19:50.530Z,34.67
2018-11-05T17:23:15.266Z,32.03
2018-11-05T17:26:40.001Z,30.93
2018-11-05T17:30:05.299Z,40.50
2018-11-05T17:33:30.092Z,59.93
2018-11-05T17:36:54.847Z,38.43
2018-11-05T17:40:21.196Z,32.70
2018-11-05T17:43:45.824Z,32.20
2018-11-05T17:47:10.614Z,31.03
2018-11-05T17:50:36.491Z,25.50
2018-11-05T17:54:01.548Z,28.07
2018-11-05T17:57:26.358Z,27.57
2018-11-05T18:00:51.139Z,27.33
2018-11-05T18:04:15.967Z,27.97
2018-11-05T18:07:40.596Z,24.47
2018-11-05T18:11:05.644Z,27.60
2018-11-05T18:14:30.664Z,47.57
2018-11-05T18:17:55.501Z,33.57
2018-11-05T18:21:20.482Z,29.93
2018-11-05T18:24:45.427Z,31.00
2018-11-05T18:28:10.270Z,26.97
2018-11-05T18:31:35.695Z,26.33
2018-11-05T18:35:00.944Z,27.87
2018-11-05T18:38:25.751Z,29.87
2018-11-05T18:41:50.542Z,29.00
2018-11-05T18:45:15.406Z,31.33
2018-11-05T18:48:40.065Z,29.10
2018-11-05T18:52:04.860Z,35.70
2018-11-05T18:55:29.572Z,33.70
2018-11-05T18:58:54.298Z,34.03
2018-11-05T19:02:24.063Z,27.40
2018-11-05T19:05:48.756Z,33.80
2018-11-05T19:09:13.476Z,31.90
2018-11-05T19:12:38.253Z,32.83
2018-11-05T19:16:03.529Z,37.43
2018-11-05T19:19:28.269Z,33.20
2018-11-05T19:22:53.126Z,36.23
2018-11-05T19:26:17.859Z,29.63
2018-11-05T19:29:42.584Z,34.87
2018-11-05T19:33:08.064Z,32.23
2018-11-05T19:36:32.814Z,33.57
2018-11-05T19:39:57.620Z,27.93
2018-11-05T19:43:23.366Z,28.80
2018-11-05T19:46:48.063Z,32.60
2018-11-05T19:50:15.306Z,29.13
2018-11-05T19:53:40.135Z,29.37
2018-11-05T19:57:06.212Z,29.10
2018-11-05T20:00:31.370Z,29.30
2018-11-05T20:04:27.403Z,35.17
2018-11-05T20:07:52.921Z,38.37
2018-11-05T20:11:17.781Z,43.10
2018-11-05T20:14:42.460Z,36.10
2018-11-05T20:18:07.302Z,44.27
2018-11-05T20:21:32.100Z,40.57
2018-11-05T20:24:56.803Z,32.43
2018-11-05T20:28:23.427Z,39.07
2018-11-05T20:31:48.464Z,38.20
2018-11-05T20:35:13.000Z,38.00
2018-11-05T20:38:37.633Z,41.90
2018-11-05T20:42:02.360Z,38.40
2018-11-05T20:45:27.330Z,38.40
2018-11-05T20:48:52.058Z,37.13
2018-11-05T20:52:16.768Z,37.63
2018-11-05T20:55:41.768Z,48.07
2018-11-05T20:59:07.123Z,43.57
2018-11-05T21:02:31.971Z,46.77
2018-11-05T21:05:56.837Z,41.07
2018-11-05T21:09:21.548Z,37.87
2018-11-05T21:12:46.376Z,44.67
2018-11-05T21:16:11.122Z,43.33
2018-11-05T21:19:35.882Z,42.13
2018-11-05T21:23:00.710Z,46.37
2018-11-05T21:26:25.481Z,42.40
2018-11-05T21:29:50.221Z,44.60
2018-11-05T21:33:15.003Z,51.07
2018-11-05T21:36:39.841Z,46.87
2018-11-05T21:40:04.862Z,65.90
2018-11-05T21:43:29.625Z,59.73
2018-11-05T21:46:54.357Z,62.57
2018-11-05T21:50:19.856Z,54.20
2018-11-05T21:53:44.664Z,57.70
2018-11-05T21:57:09.418Z,68.33
2018-11-05T22:00:34.179Z,59.80
2018-11-05T22:03:58.927Z,65.87
2018-11-05T22:07:23.734Z,54.40
2018-11-05T22:10:48.478Z,59.00
2018-11-05T22:14:13.234Z,54.50
2018-11-05T22:17:37.973Z,46.17
2018-11-05T22:21:02.687Z,55.60
2018-11-05T22:24:27.408Z,53.87
2018-11-05T22:27:53.941Z,43.83
2018-11-05T22:31:18.685Z,43.50
2018-11-05T22:34:43.410Z,50.17
2018-11-05T22:38:08.330Z,35.80
2018-11-05T22:41:33.009Z,37.00
2018-11-05T22:44:57.739Z,45.57
2018-11-05T22:48:22.465Z,42.93
2018-11-05T22:51:47.209Z,37.07
2018-11-05T22:55:12.055Z,39.70
2018-11-05T22:58:36.756Z,34.03
2018-11-05T23:02:01.801Z,38.73
2018-11-05T23:05:26.704Z,38.70
2018-11-05T23:08:51.408Z,36.47
2018-11-05T23:12:16.138Z,35.97
2018-11-05T23:15:41.015Z,43.23
2018-11-05T23:19:05.951Z,45.07
2018-11-05T23:22:30.661Z,41.80
2018-11-05T23:25:55.367Z,40.50
2018-11-05T23:29:20.098Z,47.27
2018-11-05T23:32:44.793Z,47.13
2018-11-05T23:36:09.538Z,53.50
2018-11-05T23:39:34.304Z,43.47
2018-11-05T23:42:59.040Z,45.77
2018-11-05T23:46:23.746Z,41.37
2018-11-05T23:49:48.492Z,42.17
2018-11-05T23:53:13.223Z,41.67
2018-11-05T23:56:37.882Z,48.13
